createdAt,value
2019-02-22T00:02:00.604Z,10.66
2019-02-22T00:04:30.105Z,10.67
2019-02-22T00:06:59.682Z,10.72
2019-02-22T00:09:29.190Z,10.56
2019-02-22T00:11:58.690Z,10.69
2019-02-22T00:14:28.216Z,10.84
2019-02-22T00:16:57.757Z,10.59
2019-02-22T00:19:27.302Z,10.53
2019-02-22T00:21:56.795Z,10.59
2019-02-22T00:24:26.304Z,10.70
2019-02-22T00:26:55.811Z,10.84
2019-02-22T00:29:25.333Z,10.72
2019-02-22T00:31:54.861Z,10.61
2019-02-22T00:34:24.405Z,10.67
2019-02-22T00:36:54.053Z,11.01
2019-02-22T00:39:23.521Z,11.00
2019-02-22T00:41:53.012Z,10.98
2019-02-22T00:44:22.511Z,10.97
2019-02-22T00:46:51.997Z,10.79
2019-02-22T00:49:21.527Z,10.83
2019-02-22T00:51:50.985Z,10.80
2019-02-22T00:54:20.515Z,10.79
2019-02-22T00:56:50.039Z,10.66
2019-02-22T00:59:19.575Z,10.79
2019-02-22T01:01:49.071Z,10.67
2019-02-22T01:04:18.640Z,10.60
2019-02-22T01:06:48.120Z,10.58
2019-02-22T01:09:17.622Z,10.53
2019-02-22T01:11:47.135Z,10.47
2019-02-22T01:14:16.630Z,10.53
2019-02-22T01:16:46.481Z,10.57
2019-02-22T01:19:15.967Z,10.34
2019-02-22T01:21:45.503Z,10.53
2019-02-22T01:24:15.031Z,10.58
2019-02-22T01:26:44.524Z,10.48
2019-02-22T01:29:14.010Z,10.79
2019-02-22T01:31:43.499Z,10.83
2019-02-22T01:34:13.000Z,10.84
2019-02-22T01:36:42.586Z,10.76
2019-02-22T01:39:12.056Z,10.69
2019-02-22T01:41:41.691Z,10.82
2019-02-22T01:44:20.092Z,10.81
2019-02-22T01:46:49.601Z,11.12
2019-02-22T01:49:19.130Z,11.16
2019-02-22T01:51:48.659Z,11.24
2019-02-22T01:54:18.116Z,11.19
2019-02-22T01:56:47.620Z,11.35
2019-02-22T01:59:17.178Z,10.90
2019-02-22T02:01:46.688Z,10.83
2019-02-22T02:04:16.186Z,10.72
2019-02-22T02:06:46.832Z,10.76
2019-02-22T02:09:16.405Z,11.10
2019-02-22T02:11:45.889Z,10.92
2019-02-22T02:14:15.370Z,11.23
2019-02-22T02:16:44.866Z,11.04
2019-02-22T02:19:14.415Z,10.81
2019-02-22T02:21:44.020Z,10.83
2019-02-22T02:24:13.561Z,10.70
2019-02-22T02:26:43.069Z,10.62
2019-02-22T02:29:12.555Z,10.57
2019-02-22T02:31:42.079Z,10.64
2019-02-22T02:34:11.552Z,10.60
2019-02-22T02:36:41.034Z,10.70
2019-02-22T02:39:10.595Z,10.90
2019-02-22T02:41:40.093Z,10.87
2019-02-22T02:44:09.570Z,10.92
2019-02-22T02:46:39.109Z,10.80
2019-02-22T02:49:08.599Z,10.90
2019-02-22T02:51:38.095Z,11.15
2019-02-22T02:54:07.585Z,11.22
2019-02-22T02:56:37.082Z,10.91
2019-02-22T02:59:06.581Z,10.98
2019-02-22T03:01:36.060Z,11.12
2019-02-22T03:04:05.543Z,11.24
2019-02-22T03:06:49.108Z,11.19
2019-02-22T03:09:18.586Z,11.35
2019-02-22T03:11:48.076Z,11.35
2019-02-22T03:14:17.554Z,11.19
2019-02-22T03:16:47.121Z,11.26
2019-02-22T03:19:16.622Z,11.19
2019-02-22T03:21:46.144Z,11.00
2019-02-22T03:24:15.620Z,10.83
2019-02-22T03:26:45.204Z,10.68
2019-02-22T03:29:14.694Z,10.86
2019-02-22T03:31:44.199Z,10.70
2019-02-22T03:34:13.726Z,10.58
2019-02-22T03:36:43.229Z,10.36
2019-02-22T03:39:12.700Z,10.48
2019-02-22T03:41:42.170Z,10.77
2019-02-22T03:44:11.643Z,10.49
2019-02-22T03:46:41.128Z,10.71
2019-02-22T03:49:10.620Z,10.71
2019-02-22T03:51:40.102Z,10.81
2019-02-22T03:54:09.588Z,10.95
2019-02-22T03:56:39.105Z,11.32
2019-02-22T03:59:08.599Z,11.33
2019-02-22T04:01:38.161Z,11.59
2019-02-22T04:04:07.724Z,11.53
2019-02-22T04:06:37.216Z,11.46
2019-02-22T04:09:10.973Z,11.38
2019-02-22T04:11:45.540Z,11.27
2019-02-22T04:14:11.671Z,11.42
2019-02-22T04:16:41.205Z,11.61
2019-02-22T04:19:10.675Z,11.53
2019-02-22T04:21:40.182Z,11.75
2019-02-22T04:24:09.940Z,11.89
2019-02-22T04:26:39.432Z,11.87
2019-02-22T04:29:08.900Z,11.73
2019-02-22T04:31:38.400Z,11.83
2019-02-22T04:34:07.898Z,11.92
2019-02-22T04:36:37.397Z,11.85
2019-02-22T04:39:07.106Z,11.98
2019-02-22T04:41:36.649Z,12.03
2019-02-22T04:44:06.157Z,12.17
2019-02-22T04:46:35.620Z,12.29
2019-02-22T04:49:05.423Z,12.35
2019-02-22T04:51:34.960Z,12.52
2019-02-22T04:54:04.514Z,12.49
2019-02-22T04:56:34.075Z,12.60
2019-02-22T04:59:03.574Z,12.69
2019-02-22T05:01:33.133Z,12.75
2019-02-22T05:04:02.691Z,12.64
2019-02-22T05:06:32.189Z,12.53
2019-02-22T05:09:01.750Z,12.52
2019-02-22T05:11:31.243Z,12.51
2019-02-22T05:14:00.725Z,12.69
2019-02-22T05:16:30.197Z,12.63
2019-02-22T05:18:59.964Z,12.52
2019-02-22T05:21:29.485Z,12.29
2019-02-22T05:23:58.978Z,12.38
2019-02-22T05:26:28.519Z,12.18
2019-02-22T05:28:57.979Z,12.02
2019-02-22T05:31:27.477Z,11.80
2019-02-22T05:33:57.214Z,11.68
2019-02-22T05:36:26.697Z,11.87
2019-02-22T05:38:56.204Z,11.82
2019-02-22T05:41:25.678Z,11.92
2019-02-22T05:43:55.158Z,11.96
2019-02-22T05:46:24.740Z,11.83
2019-02-22T05:48:54.215Z,11.81
2019-02-22T05:51:23.707Z,12.03
2019-02-22T05:53:53.190Z,11.94
2019-02-22T05:56:22.785Z,11.86
2019-02-22T05:58:52.300Z,11.81
2019-02-22T06:01:21.881Z,11.69
2019-02-22T06:03:51.459Z,11.75
2019-02-22T06:06:20.938Z,11.43
2019-02-22T06:08:50.448Z,11.38
2019-02-22T06:11:19.957Z,11.40
2019-02-22T06:13:49.537Z,11.35
2019-02-22T06:16:19.024Z,11.25
2019-02-22T06:18:48.510Z,11.29
2019-02-22T06:21:18.025Z,11.37
2019-02-22T06:23:47.495Z,11.55
2019-02-22T06:26:17.008Z,11.36
2019-02-22T06:28:46.490Z,11.48
2019-02-22T06:31:15.957Z,11.50
2019-02-22T06:33:45.464Z,11.57
2019-02-22T06:36:14.968Z,11.57
2019-02-22T06:38:46.549Z,11.47
2019-02-22T06:41:15.684Z,11.40
2019-02-22T06:43:45.176Z,11.46
2019-02-22T06:46:14.719Z,11.67
2019-02-22T06:48:44.218Z,11.60
2019-02-22T06:51:13.695Z,11.51
2019-02-22T06:53:43.221Z,11.26
2019-02-22T06:56:12.742Z,11.37
2019-02-22T06:58:42.226Z,11.50
2019-02-22T07:01:11.808Z,11.66
2019-02-22T07:03:41.307Z,11.49
2019-02-22T07:06:10.782Z,11.58
2019-02-22T07:08:40.457Z,11.84
2019-02-22T07:11:17.765Z,11.94
2019-02-22T07:13:47.550Z,11.92
2019-02-22T07:16:17.015Z,11.81
2019-02-22T07:18:46.499Z,12.08
2019-02-22T07:21:16.101Z,11.86
2019-02-22T07:23:45.813Z,11.75
2019-02-22T07:26:15.504Z,11.75
2019-02-22T07:28:45.118Z,11.71
2019-02-22T07:31:14.599Z,11.70
2019-02-22T07:33:44.467Z,11.62
2019-02-22T07:36:14.139Z,11.62
2019-02-22T07:38:43.622Z,11.59
2019-02-22T07:41:13.164Z,11.63
2019-02-22T07:43:42.714Z,11.57
2019-02-22T07:46:12.306Z,11.78
2019-02-22T07:48:41.785Z,11.94
2019-02-22T07:51:11.379Z,12.26
2019-02-22T07:53:40.862Z,12.21
2019-02-22T07:56:10.778Z,12.24
2019-02-22T07:58:40.259Z,12.21
2019-02-22T08:01:09.759Z,12.28
2019-02-22T08:03:39.341Z,12.25
2019-02-22T08:06:08.863Z,12.24
2019-02-22T08:08:38.333Z,12.23
2019-02-22T08:11:07.856Z,12.41
2019-02-22T08:13:37.538Z,12.66
2019-02-22T08:16:07.056Z,12.61
2019-02-22T08:18:36.541Z,12.77
2019-02-22T08:21:06.139Z,12.70
2019-02-22T08:23:35.693Z,12.70
2019-02-22T08:26:05.189Z,12.79
2019-02-22T08:28:34.773Z,12.65
2019-02-22T08:31:04.332Z,12.74
2019-02-22T08:33:33.905Z,12.79
2019-02-22T08:36:03.540Z,12.61
2019-02-22T08:38:33.047Z,12.77
2019-02-22T08:41:02.531Z,12.73
2019-02-22T08:43:32.074Z,12.64
2019-02-22T08:46:01.595Z,12.82
2019-02-22T08:48:31.116Z,12.64
2019-02-22T08:51:00.599Z,12.60
2019-02-22T08:53:30.132Z,12.71
2019-02-22T08:55:59.627Z,12.80
2019-02-22T08:58:29.220Z,12.77
2019-02-22T09:00:58.818Z,12.94
2019-02-22T09:03:28.359Z,12.97
2019-02-22T09:05:57.870Z,12.80
2019-02-22T09:08:27.490Z,12.87
2019-02-22T09:11:00.504Z,12.86
2019-02-22T09:13:28.199Z,12.93
2019-02-22T09:15:57.690Z,13.05
2019-02-22T09:18:27.162Z,13.02
2019-02-22T09:20:56.719Z,13.05
2019-02-22T09:23:26.238Z,13.09
2019-02-22T09:25:55.731Z,13.08
2019-02-22T09:28:25.344Z,13.13
2019-02-22T09:30:54.851Z,13.20
2019-02-22T09:33:24.337Z,13.40
2019-02-22T09:35:53.883Z,13.33
2019-02-22T09:38:23.416Z,13.40
2019-02-22T09:40:53.084Z,13.41
2019-02-22T09:43:22.560Z,13.39
2019-02-22T09:45:52.140Z,13.38
2019-02-22T09:48:21.643Z,13.49
2019-02-22T09:51:42.815Z,13.44
2019-02-22T09:54:52.246Z,13.46
2019-02-22T09:57:21.169Z,13.47
2019-02-22T09:59:50.688Z,13.43
2019-02-22T10:02:20.267Z,13.40
2019-02-22T10:04:55.084Z,13.44
2019-02-22T10:07:21.290Z,13.48
2019-02-22T10:09:50.775Z,13.49
2019-02-22T10:12:20.359Z,13.54
2019-02-22T10:14:49.795Z,13.54
2019-02-22T10:17:19.244Z,13.62
2019-02-22T10:19:48.780Z,13.56
2019-02-22T10:22:18.264Z,13.58
2019-02-22T10:24:48.091Z,13.57
2019-02-22T10:27:17.586Z,13.53
2019-02-22T10:29:47.279Z,13.54
2019-02-22T10:32:16.755Z,13.58
2019-02-22T10:34:46.279Z,13.60
2019-02-22T10:37:16.035Z,13.67
2019-02-22T10:39:45.539Z,13.67
2019-02-22T10:42:15.090Z,13.75
2019-02-22T10:44:44.596Z,13.77
2019-02-22T10:47:14.103Z,13.85
2019-02-22T10:49:43.644Z,13.84
2019-02-22T10:52:13.129Z,13.83
2019-02-22T10:54:42.818Z,13.91
2019-02-22T10:57:12.307Z,13.94
2019-02-22T10:59:41.885Z,13.92
2019-02-22T11:02:11.403Z,13.92
2019-02-22T11:04:40.966Z,13.95
2019-02-22T11:07:10.615Z,13.93
2019-02-22T11:09:40.090Z,13.93
2019-02-22T11:12:09.633Z,13.92
2019-02-22T11:14:39.168Z,13.92
2019-02-22T11:17:08.794Z,13.97
2019-02-22T11:19:38.272Z,13.97
2019-02-22T11:22:07.825Z,14.01
2019-02-22T11:24:37.304Z,14.03
2019-02-22T11:27:06.830Z,14.11
2019-02-22T11:29:36.300Z,14.17
2019-02-22T11:32:05.868Z,14.21
2019-02-22T11:34:35.376Z,14.23
2019-02-22T11:37:05.363Z,14.26
2019-02-22T11:39:34.847Z,14.31
2019-02-22T11:42:04.504Z,14.37
2019-02-22T11:44:40.219Z,14.39
2019-02-22T11:47:05.162Z,14.39
2019-02-22T11:49:34.644Z,14.42
2019-02-22T11:52:04.285Z,14.41
2019-02-22T11:54:33.923Z,14.43
2019-02-22T11:57:04.064Z,14.44
2019-02-22T11:59:33.672Z,14.43
2019-02-22T12:02:03.376Z,14.43
2019-02-22T12:04:32.835Z,14.42
2019-02-22T12:07:02.397Z,14.45
2019-02-22T12:09:31.983Z,14.45
2019-02-22T12:12:01.532Z,14.43
2019-02-22T12:14:31.003Z,14.44
2019-02-22T12:17:00.487Z,14.45
2019-02-22T12:19:29.981Z,14.44
2019-02-22T12:21:59.493Z,14.42
2019-02-22T12:24:28.993Z,14.41
2019-02-22T12:26:58.568Z,14.41
2019-02-22T12:29:28.477Z,14.40
2019-02-22T12:31:57.956Z,14.37
2019-02-22T12:34:27.495Z,14.37
2019-02-22T12:36:57.049Z,14.36
2019-02-22T12:39:26.551Z,14.32
2019-02-22T12:41:56.175Z,14.32
2019-02-22T12:44:25.664Z,14.32
2019-02-22T12:46:55.212Z,14.31
2019-02-22T12:49:24.755Z,14.31
2019-02-22T12:51:54.307Z,14.30
2019-02-22T12:54:23.983Z,14.30
2019-02-22T12:56:57.414Z,14.30
2019-02-22T12:59:24.644Z,14.29
2019-02-22T13:01:54.299Z,14.28
2019-02-22T13:04:23.794Z,14.30
2019-02-22T13:06:53.364Z,14.31
2019-02-22T13:09:23.010Z,14.30
2019-02-22T13:11:52.496Z,14.29
2019-02-22T13:14:22.033Z,14.32
2019-02-22T13:16:51.604Z,14.30
2019-02-22T13:22:02.861Z,14.40
2019-02-22T13:24:32.343Z,14.32
2019-02-22T13:27:01.986Z,14.30
2019-02-22T13:29:31.451Z,14.29
2019-02-22T13:32:00.913Z,14.28
2019-02-22T13:34:30.399Z,14.28
2019-02-22T13:36:59.875Z,14.27
2019-02-22T13:39:29.342Z,14.26
2019-02-22T13:41:58.938Z,14.25
2019-02-22T13:44:28.487Z,14.24
2019-02-22T13:46:58.104Z,14.23
2019-02-22T13:49:27.840Z,14.21
2019-02-22T13:51:57.323Z,14.22
2019-02-22T13:54:26.844Z,14.22
2019-02-22T13:56:56.322Z,14.20
2019-02-22T13:59:25.879Z,14.20
2019-02-22T14:01:55.834Z,14.20
2019-02-22T14:04:25.303Z,14.21
2019-02-22T14:06:54.784Z,14.19
2019-02-22T14:09:24.270Z,14.21
2019-02-22T14:11:53.823Z,14.22
2019-02-22T14:14:24.220Z,14.20
2019-02-22T14:16:53.740Z,14.22
2019-02-22T14:19:23.244Z,14.28
2019-02-22T14:21:52.828Z,14.30
2019-02-22T14:24:22.341Z,14.31
2019-02-22T14:26:51.861Z,14.30
2019-02-22T14:29:22.944Z,14.30
2019-02-22T14:31:52.442Z,14.29
2019-02-22T14:34:22.104Z,14.30
2019-02-22T14:36:51.662Z,14.33
2019-02-22T14:39:21.180Z,14.35
2019-02-22T14:41:50.668Z,14.36
2019-02-22T14:44:20.195Z,14.37
2019-02-22T14:46:49.677Z,14.41
2019-02-22T14:49:19.199Z,14.49
2019-02-22T14:51:48.688Z,14.56
2019-02-22T14:54:18.175Z,14.60
2019-02-22T14:56:47.640Z,14.68
2019-02-22T14:59:17.152Z,14.75
2019-02-22T15:01:46.804Z,14.81
2019-02-22T15:04:17.245Z,14.87
2019-02-22T15:06:46.727Z,14.92
2019-02-22T15:09:16.227Z,14.95
2019-02-22T15:11:45.711Z,14.99
2019-02-22T15:14:17.863Z,15.02
2019-02-22T15:17:08.169Z,15.03
2019-02-22T15:19:37.733Z,15.05
2019-02-22T15:22:07.304Z,15.06
2019-02-22T15:24:36.766Z,15.07
2019-02-22T15:27:06.281Z,15.09
2019-02-22T15:29:35.749Z,15.07
2019-02-22T15:32:05.319Z,15.10
2019-02-22T15:34:34.872Z,15.14
2019-02-22T15:37:04.413Z,15.17
2019-02-22T15:39:33.877Z,15.19
2019-02-22T15:42:03.477Z,15.18
2019-02-22T15:45:28.825Z,15.17
2019-02-22T15:47:59.238Z,15.17
2019-02-22T15:50:28.753Z,15.16
2019-02-22T15:52:58.251Z,15.17
2019-02-22T15:55:27.778Z,15.15
2019-02-22T15:57:57.358Z,15.16
2019-02-22T16:00:28.070Z,15.16
2019-02-22T16:02:57.613Z,15.19
2019-02-22T16:05:29.706Z,15.21
2019-02-22T16:07:59.256Z,15.19
2019-02-22T16:10:28.763Z,15.17
2019-02-22T16:12:58.370Z,15.15
2019-02-22T16:15:27.977Z,15.14
2019-02-22T16:17:57.551Z,15.11
2019-02-22T16:20:27.127Z,15.09
2019-02-22T16:22:56.575Z,15.06
2019-02-22T16:25:26.070Z,15.02
2019-02-22T16:27:55.564Z,14.96
2019-02-22T16:30:27.610Z,14.88
2019-02-22T16:32:57.087Z,14.80
2019-02-22T16:35:26.656Z,14.72
2019-02-22T16:37:56.131Z,14.67
2019-02-22T16:40:25.636Z,14.63
2019-02-22T16:42:55.422Z,14.65
2019-02-22T16:45:24.885Z,14.58
2019-02-22T16:47:54.447Z,14.50
2019-02-22T16:50:23.911Z,14.43
2019-02-22T16:52:53.386Z,14.36
2019-02-22T16:55:22.951Z,14.26
2019-02-22T16:57:52.524Z,14.15
2019-02-22T17:00:22.059Z,14.08
2019-02-22T17:02:51.659Z,13.99
2019-02-22T17:05:21.143Z,13.94
2019-02-22T17:07:50.695Z,13.86
2019-02-22T17:10:20.252Z,13.85
2019-02-22T17:12:49.819Z,13.79
2019-02-22T17:15:19.300Z,13.78
2019-02-22T17:17:48.876Z,13.72
2019-02-22T17:20:18.369Z,13.73
2019-02-22T17:22:47.892Z,13.65
2019-02-22T17:25:17.419Z,13.72
2019-02-22T17:27:47.006Z,13.74
2019-02-22T17:30:16.493Z,13.90
2019-02-22T17:32:45.968Z,13.93
2019-02-22T17:35:15.464Z,13.90
2019-02-22T17:37:45.089Z,13.83
2019-02-22T17:40:17.551Z,13.67
2019-02-22T17:42:47.088Z,13.62
2019-02-22T17:45:16.611Z,13.63
2019-02-22T17:47:46.112Z,13.49
2019-02-22T17:50:15.742Z,13.47
2019-02-22T17:52:45.240Z,13.43
2019-02-22T17:55:14.801Z,13.43
2019-02-22T17:57:44.326Z,13.41
2019-02-22T18:00:16.273Z,13.31
2019-02-22T18:02:45.871Z,13.27
2019-02-22T18:05:15.495Z,13.31
2019-02-22T18:07:45.083Z,13.25
2019-02-22T18:10:14.620Z,13.12
2019-02-22T18:12:44.086Z,13.10
2019-02-22T18:15:13.655Z,12.96
2019-02-22T18:17:43.497Z,12.89
2019-02-22T18:20:13.150Z,12.78
2019-02-22T18:22:42.633Z,12.84
2019-02-22T18:25:12.185Z,12.86
2019-02-22T18:27:41.685Z,12.78
2019-02-22T18:30:12.029Z,12.79
2019-02-22T18:32:41.514Z,12.83
2019-02-22T18:35:11.071Z,12.82
2019-02-22T18:37:40.588Z,12.89
2019-02-22T18:40:11.782Z,12.96
2019-02-22T18:42:41.426Z,12.77
2019-02-22T18:45:11.005Z,12.76
2019-02-22T18:47:40.581Z,12.79
2019-02-22T18:50:10.164Z,12.82
2019-02-22T18:52:39.660Z,12.80
2019-02-22T18:55:09.400Z,12.65
2019-02-22T18:57:38.959Z,12.83
2019-02-22T19:00:10.501Z,12.88
2019-02-22T19:02:39.969Z,12.89
2019-02-22T19:05:09.673Z,12.82
2019-02-22T19:07:39.145Z,12.77
2019-02-22T19:10:09.934Z,12.77
2019-02-22T19:12:39.390Z,12.66
2019-02-22T19:15:10.552Z,12.66
2019-02-22T19:17:40.106Z,12.62
2019-02-22T19:20:11.493Z,12.54
2019-02-22T19:22:40.987Z,12.53
2019-02-22T19:25:10.623Z,12.59
2019-02-22T19:27:40.177Z,12.61
2019-02-22T19:30:14.897Z,12.73
2019-02-22T19:32:44.453Z,12.49
2019-02-22T19:35:14.014Z,12.40
2019-02-22T19:37:43.480Z,12.42
2019-02-22T19:40:15.114Z,12.40
2019-02-22T19:42:44.574Z,12.07
2019-02-22T19:45:14.138Z,12.05
2019-02-22T19:47:43.613Z,12.03
2019-02-22T19:50:13.303Z,12.07
2019-02-22T19:52:42.876Z,12.23
2019-02-22T19:55:13.356Z,12.10
2019-02-22T19:57:42.922Z,12.12
2019-02-22T20:00:14.502Z,12.29
2019-02-22T20:02:43.988Z,12.10
2019-02-22T20:05:13.611Z,11.97
2019-02-22T20:07:43.246Z,12.08
2019-02-22T20:10:18.024Z,12.09
2019-02-22T20:12:44.944Z,12.10
2019-02-22T20:15:15.150Z,12.46
2019-02-22T20:17:53.146Z,12.64
2019-02-22T20:20:16.278Z,12.65
2019-02-22T20:22:45.831Z,12.51
2019-02-22T20:25:15.398Z,12.42
2019-02-22T20:27:44.874Z,12.45
2019-02-22T20:30:15.144Z,12.32
2019-02-22T20:32:44.725Z,12.32
2019-02-22T20:35:16.177Z,12.19
2019-02-22T20:37:52.580Z,12.03
2019-02-22T20:40:16.941Z,12.16
2019-02-22T20:42:46.427Z,11.98
2019-02-22T20:45:15.915Z,11.79
2019-02-22T20:47:45.402Z,11.97
2019-02-22T20:50:14.965Z,12.05
2019-02-22T20:52:44.518Z,11.91
2019-02-22T20:55:14.146Z,11.83
2019-02-22T20:57:43.662Z,11.85
2019-02-22T21:00:15.343Z,11.77
2019-02-22T21:02:44.943Z,11.68
2019-02-22T21:05:14.496Z,11.63
2019-02-22T21:07:43.998Z,11.56
2019-02-22T21:10:15.022Z,11.54
2019-02-22T21:12:44.520Z,11.62
2019-02-22T21:15:14.068Z,11.51
2019-02-22T21:17:43.547Z,11.63
2019-02-22T21:20:13.407Z,11.50
2019-02-22T21:22:42.986Z,11.34
2019-02-22T21:25:12.513Z,11.52
2019-02-22T21:27:42.060Z,11.58
2019-02-22T21:30:13.054Z,11.64
2019-02-22T21:32:42.618Z,11.65
2019-02-22T21:35:12.180Z,11.50
2019-02-22T21:37:41.727Z,11.64
2019-02-22T21:40:11.288Z,11.43
2019-02-22T21:42:40.798Z,11.77
2019-02-22T21:45:10.807Z,11.62
2019-02-22T21:47:40.383Z,11.67
2019-02-22T21:50:11.728Z,11.66
2019-02-22T21:52:41.312Z,11.84
2019-02-22T21:55:11.111Z,11.70
2019-02-22T21:57:40.789Z,11.60
2019-02-22T22:00:13.432Z,11.89
2019-02-22T22:02:42.972Z,11.97
2019-02-22T22:05:12.451Z,12.02
2019-02-22T22:07:41.907Z,11.96
2019-02-22T22:10:11.449Z,12.13
2019-02-22T22:12:41.013Z,12.28
2019-02-22T22:15:10.980Z,12.17
2019-02-22T22:17:40.623Z,12.06
2019-02-22T22:20:10.290Z,12.23
2019-02-22T22:22:39.986Z,12.03
2019-02-22T22:25:09.988Z,11.70
2019-02-22T22:27:39.578Z,11.69
2019-02-22T22:30:10.224Z,11.83
2019-02-22T22:32:39.744Z,11.79
2019-02-22T22:35:10.055Z,11.91
2019-02-22T22:37:39.536Z,11.88
2019-02-22T22:40:09.775Z,11.73
2019-02-22T22:42:39.405Z,11.84
2019-02-22T22:45:09.803Z,11.75
2019-02-22T22:47:39.292Z,11.84
2019-02-22T22:50:10.518Z,11.82
2019-02-22T22:52:40.082Z,11.86
2019-02-22T22:55:09.935Z,11.69
2019-02-22T22:57:39.697Z,11.99
2019-02-22T23:00:35.849Z,12.01
2019-02-22T23:03:05.367Z,12.14
2019-02-22T23:05:34.918Z,12.12
2019-02-22T23:08:04.577Z,12.06
2019-02-22T23:10:34.065Z,12.22
2019-02-22T23:13:03.539Z,12.14
2019-02-22T23:15:33.039Z,12.11
2019-02-22T23:18:02.523Z,12.08
2019-02-22T23:20:32.099Z,12.02
2019-02-22T23:23:01.721Z,12.18
2019-02-22T23:25:31.271Z,12.03
2019-02-22T23:28:00.750Z,12.04
2019-02-22T23:30:30.245Z,11.95
2019-02-22T23:32:59.740Z,11.86
2019-02-22T23:35:29.337Z,11.72
2019-02-22T23:37:58.791Z,11.62
2019-02-22T23:40:28.275Z,11.43
2019-02-22T23:42:57.845Z,11.61
2019-02-22T23:45:27.355Z,11.63
2019-02-22T23:47:56.834Z,11.70
2019-02-22T23:50:26.322Z,11.66
2019-02-22T23:52:55.897Z,11.64
2019-02-22T23:55:25.374Z,11.71
2019-02-22T23:57:54.853Z,11.60
